sensor_id;sensor_type;location;lat;lon;timestamp;temperature;humidity
33831;DHT22;20137;48.834;8.732;2023-09-19T00:00:42;16.10;99.90
33831;DHT22;20137;48.834;8.732;2023-09-19T00:03:09;16.00;99.90
33831;DHT22;20137;48.834;8.732;2023-09-19T00:05:36;16.00;99.90
33831;DHT22;20137;48.834;8.732;2023-09-19T00:08:04;16.00;99.90
33831;DHT22;20137;48.834;8.732;2023-09-19T00:10:30;16.00;99.90
33831;DHT22;20137;48.834;8.732;2023-09-19T00:13:03;16.00;99.90
33831;DHT22;20137;48.834;8.732;2023-09-19T00:15:46;16.00;99.90
33831;DHT22;20137;48.834;8.732;2023-09-19T00:18:19;16.00;99.90
33831;DHT22;20137;48.834;8.732;2023-09-19T00:20:46;16.00;99.90
33831;DHT22;20137;48.834;8.732;2023-09-19T00:23:13;15.90;99.90
33831;DHT22;20137;48.834;8.732;2023-09-19T00:25:39;16.00;99.90
33831;DHT22;20137;48.834;8.732;2023-09-19T00:28:06;15.90;99.90
33831;DHT22;20137;48.834;8.732;2023-09-19T00:30:33;15.90;99.90
33831;DHT22;20137;48.834;8.732;2023-09-19T00:32:59;15.90;99.90
33831;DHT22;20137;48.834;8.732;2023-09-19T00:35:26;15.90;99.90
33831;DHT22;20137;48.834;8.732;2023-09-19T00:37:53;15.90;99.90
33831;DHT22;20137;48.834;8.732;2023-09-19T00:40:19;16.00;99.90
33831;DHT22;20137;48.834;8.732;2023-09-19T00:42:47;16.00;99.90
33831;DHT22;20137;48.834;8.732;2023-09-19T00:45:15;16.10;99.90
33831;DHT22;20137;48.834;8.732;2023-09-19T00:47:46;16.00;99.90
33831;DHT22;20137;48.834;8.732;2023-09-19T00:50:19;16.10;99.90
33831;DHT22;20137;48.834;8.732;2023-09-19T00:52:46;16.00;99.90
33831;DHT22;20137;48.834;8.732;2023-09-19T00:55:14;16.00;99.90
33831;DHT22;20137;48.834;8.732;2023-09-19T00:57:42;16.00;99.90
33831;DHT22;20137;48.834;8.732;2023-09-19T01:00:09;16.00;99.90
33831;DHT22;20137;48.834;8.732;2023-09-19T01:02:44;16.00;99.90
33831;DHT22;20137;48.834;8.732;2023-09-19T01:05:10;15.90;99.90
33831;DHT22;20137;48.834;8.732;2023-09-19T01:07:36;15.90;99.90
33831;DHT22;20137;48.834;8.732;2023-09-19T01:10:06;15.80;99.90
33831;DHT22;20137;48.834;8.732;2023-09-19T01:12:46;15.80;99.90
33831;DHT22;20137;48.834;8.732;2023-09-19T01:15:26;15.80;99.90
33831;DHT22;20137;48.834;8.732;2023-09-19T01:27:17;15.70;99.90
33831;DHT22;20137;48.834;8.732;2023-09-19T01:29:48;15.70;99.90
33831;DHT22;20137;48.834;8.732;2023-09-19T01:32:19;15.50;99.90
33831;DHT22;20137;48.834;8.732;2023-09-19T01:34:51;15.50;99.90
33831;DHT22;20137;48.834;8.732;2023-09-19T01:37:18;15.60;99.90
33831;DHT22;20137;48.834;8.732;2023-09-19T01:40:12;15.70;99.90
33831;DHT22;20137;48.834;8.732;2023-09-19T01:42:58;15.70;99.90
33831;DHT22;20137;48.834;8.732;2023-09-19T01:45:40;15.80;99.90
33831;DHT22;20137;48.834;8.732;2023-09-19T01:53:23;15.70;99.90
33831;DHT22;20137;48.834;8.732;2023-09-19T01:55:50;15.70;99.90
33831;DHT22;20137;48.834;8.732;2023-09-19T01:58:37;15.80;99.90
33831;DHT22;20137;48.834;8.732;2023-09-19T02:01:05;15.70;99.90
33831;DHT22;20137;48.834;8.732;2023-09-19T02:03:35;15.70;99.90
33831;DHT22;20137;48.834;8.732;2023-09-19T02:06:01;15.70;99.90
33831;DHT22;20137;48.834;8.732;2023-09-19T02:08:28;15.90;99.90
33831;DHT22;20137;48.834;8.732;2023-09-19T02:10:56;16.00;99.90
33831;DHT22;20137;48.834;8.732;2023-09-19T02:13:23;16.00;99.90
33831;DHT22;20137;48.834;8.732;2023-09-19T02:15:54;16.10;99.90
33831;DHT22;20137;48.834;8.732;2023-09-19T02:18:19;16.10;99.90
33831;DHT22;20137;48.834;8.732;2023-09-19T02:20:45;16.10;99.90
33831;DHT22;20137;48.834;8.732;2023-09-19T02:23:12;16.20;99.90
33831;DHT22;20137;48.834;8.732;2023-09-19T02:25:38;16.20;99.90
33831;DHT22;20137;48.834;8.732;2023-09-19T02:28:04;16.20;99.90
33831;DHT22;20137;48.834;8.732;2023-09-19T02:30:31;16.20;99.90
33831;DHT22;20137;48.834;8.732;2023-09-19T02:32:56;16.20;99.90
33831;DHT22;20137;48.834;8.732;2023-09-19T02:35:22;16.20;99.90
33831;DHT22;20137;48.834;8.732;2023-09-19T02:37:48;16.20;99.90
33831;DHT22;20137;48.834;8.732;2023-09-19T02:40:14;16.20;99.90
33831;DHT22;20137;48.834;8.732;2023-09-19T02:42:53;16.20;99.90
33831;DHT22;20137;48.834;8.732;2023-09-19T02:45:20;16.20;99.90
33831;DHT22;20137;48.834;8.732;2023-09-19T02:47:46;16.20;99.90
33831;DHT22;20137;48.834;8.732;2023-09-19T02:50:12;16.20;99.90
33831;DHT22;20137;48.834;8.732;2023-09-19T02:52:40;16.20;99.90
33831;DHT22;20137;48.834;8.732;2023-09-19T02:55:08;16.20;99.90
33831;DHT22;20137;48.834;8.732;2023-09-19T02:57:35;16.20;99.90
33831;DHT22;20137;48.834;8.732;2023-09-19T03:00:02;16.20;99.90
33831;DHT22;20137;48.834;8.732;2023-09-19T03:02:28;16.20;99.90
33831;DHT22;20137;48.834;8.732;2023-09-19T03:04:58;16.30;99.90
33831;DHT22;20137;48.834;8.732;2023-09-19T03:07:26;16.20;99.90
33831;DHT22;20137;48.834;8.732;2023-09-19T03:09:51;16.20;99.90
33831;DHT22;20137;48.834;8.732;2023-09-19T03:12:18;16.10;99.90
33831;DHT22;20137;48.834;8.732;2023-09-19T03:14:44;16.10;99.90
33831;DHT22;20137;48.834;8.732;2023-09-19T03:17:09;16.00;99.90
33831;DHT22;20137;48.834;8.732;2023-09-19T03:19:35;15.80;99.90
33831;DHT22;20137;48.834;8.732;2023-09-19T03:22:03;15.60;99.90
33831;DHT22;20137;48.834;8.732;2023-09-19T03:24:28;15.50;99.90
33831;DHT22;20137;48.834;8.732;2023-09-19T03:26:54;15.60;99.90
33831;DHT22;20137;48.834;8.732;2023-09-19T03:29:20;15.60;99.90
33831;DHT22;20137;48.834;8.732;2023-09-19T03:31:46;15.70;99.90
33831;DHT22;20137;48.834;8.732;2023-09-19T03:34:12;15.60;99.90
33831;DHT22;20137;48.834;8.732;2023-09-19T03:36:37;15.50;99.90
33831;DHT22;20137;48.834;8.732;2023-09-19T03:39:03;15.60;99.90
33831;DHT22;20137;48.834;8.732;2023-09-19T03:41:32;15.60;99.90
33831;DHT22;20137;48.834;8.732;2023-09-19T03:43:58;15.60;99.90
33831;DHT22;20137;48.834;8.732;2023-09-19T03:46:25;15.70;99.90
33831;DHT22;20137;48.834;8.732;2023-09-19T03:48:50;15.70;99.90
33831;DHT22;20137;48.834;8.732;2023-09-19T03:51:16;15.70;99.90
33831;DHT22;20137;48.834;8.732;2023-09-19T03:53:41;15.70;99.90
33831;DHT22;20137;48.834;8.732;2023-09-19T03:56:07;15.60;99.90
33831;DHT22;20137;48.834;8.732;2023-09-19T03:58:33;15.60;99.90
33831;DHT22;20137;48.834;8.732;2023-09-19T04:01:03;15.60;99.90
33831;DHT22;20137;48.834;8.732;2023-09-19T04:03:29;15.60;99.90
33831;DHT22;20137;48.834;8.732;2023-09-19T04:06:01;15.60;99.90
33831;DHT22;20137;48.834;8.732;2023-09-19T04:08:27;15.60;99.90
33831;DHT22;20137;48.834;8.732;2023-09-19T04:10:53;15.50;99.90
33831;DHT22;20137;48.834;8.732;2023-09-19T04:13:19;15.50;99.90
33831;DHT22;20137;48.834;8.732;2023-09-19T04:15:44;15.50;99.90
33831;DHT22;20137;48.834;8.732;2023-09-19T04:18:12;15.50;99.90
33831;DHT22;20137;48.834;8.732;2023-09-19T04:20:37;15.60;99.90
33831;DHT22;20137;48.834;8.732;2023-09-19T04:23:03;15.50;99.90
33831;DHT22;20137;48.834;8.732;2023-09-19T04:25:30;15.50;99.90
33831;DHT22;20137;48.834;8.732;2023-09-19T04:27:57;15.50;99.90
33831;DHT22;20137;48.834;8.732;2023-09-19T04:30:23;15.50;99.90
33831;DHT22;20137;48.834;8.732;2023-09-19T04:32:49;15.50;99.90
33831;DHT22;20137;48.834;8.732;2023-09-19T04:35:16;15.40;99.90
33831;DHT22;20137;48.834;8.732;2023-09-19T04:37:41;15.40;99.90
33831;DHT22;20137;48.834;8.732;2023-09-19T04:40:10;15.40;99.90
33831;DHT22;20137;48.834;8.732;2023-09-19T04:42:39;15.30;99.90
33831;DHT22;20137;48.834;8.732;2023-09-19T04:45:05;15.30;99.90
33831;DHT22;20137;48.834;8.732;2023-09-19T04:47:31;15.20;99.90
33831;DHT22;20137;48.834;8.732;2023-09-19T04:49:57;15.10;99.90
33831;DHT22;20137;48.834;8.732;2023-09-19T04:52:24;15.00;99.90
33831;DHT22;20137;48.834;8.732;2023-09-19T04:54:50;14.90;99.90
33831;DHT22;20137;48.834;8.732;2023-09-19T04:57:16;14.80;99.90
33831;DHT22;20137;48.834;8.732;2023-09-19T04:59:41;14.70;99.90
33831;DHT22;20137;48.834;8.732;2023-09-19T05:02:07;14.70;99.90
33831;DHT22;20137;48.834;8.732;2023-09-19T05:04:37;14.60;99.90
33831;DHT22;20137;48.834;8.732;2023-09-19T05:07:04;14.50;99.90
33831;DHT22;20137;48.834;8.732;2023-09-19T05:09:29;14.50;99.90
33831;DHT22;20137;48.834;8.732;2023-09-19T05:11:55;14.50;99.90
33831;DHT22;20137;48.834;8.732;2023-09-19T05:14:22;14.60;99.90
33831;DHT22;20137;48.834;8.732;2023-09-19T05:16:48;14.50;99.90
33831;DHT22;20137;48.834;8.732;2023-09-19T05:19:14;14.50;99.90
33831;DHT22;20137;48.834;8.732;2023-09-19T05:21:39;14.50;99.90
33831;DHT22;20137;48.834;8.732;2023-09-19T05:24:05;14.50;99.90
33831;DHT22;20137;48.834;8.732;2023-09-19T05:26:34;14.50;99.90
33831;DHT22;20137;48.834;8.732;2023-09-19T05:28:59;14.40;99.90
33831;DHT22;20137;48.834;8.732;2023-09-19T05:31:26;14.30;99.90
33831;DHT22;20137;48.834;8.732;2023-09-19T05:33:53;14.20;99.90
33831;DHT22;20137;48.834;8.732;2023-09-19T05:36:20;14.20;99.90
33831;DHT22;20137;48.834;8.732;2023-09-19T05:38:46;14.20;99.90
33831;DHT22;20137;48.834;8.732;2023-09-19T05:41:15;14.10;99.90
33831;DHT22;20137;48.834;8.732;2023-09-19T05:43:41;14.10;99.90
33831;DHT22;20137;48.834;8.732;2023-09-19T05:46:07;14.10;99.90
33831;DHT22;20137;48.834;8.732;2023-09-19T05:48:33;14.10;99.90
33831;DHT22;20137;48.834;8.732;2023-09-19T05:50:59;14.10;99.90
33831;DHT22;20137;48.834;8.732;2023-09-19T05:53:27;14.20;99.90
33831;DHT22;20137;48.834;8.732;2023-09-19T05:55:54;14.10;99.90
33831;DHT22;20137;48.834;8.732;2023-09-19T05:58:20;14.20;99.90
33831;DHT22;20137;48.834;8.732;2023-09-19T06:00:46;14.20;99.90
33831;DHT22;20137;48.834;8.732;2023-09-19T06:03:14;14.30;99.90
33831;DHT22;20137;48.834;8.732;2023-09-19T06:05:40;14.30;99.90
33831;DHT22;20137;48.834;8.732;2023-09-19T06:08:07;14.30;99.90
33831;DHT22;20137;48.834;8.732;2023-09-19T06:10:33;14.30;99.90
33831;DHT22;20137;48.834;8.732;2023-09-19T06:13:01;14.40;99.90
33831;DHT22;20137;48.834;8.732;2023-09-19T06:15:29;14.50;99.90
33831;DHT22;20137;48.834;8.732;2023-09-19T06:17:58;14.50;99.90
33831;DHT22;20137;48.834;8.732;2023-09-19T06:20:30;14.50;99.90
33831;DHT22;20137;48.834;8.732;2023-09-19T06:22:57;14.60;99.90
33831;DHT22;20137;48.834;8.732;2023-09-19T06:25:23;14.70;99.90
33831;DHT22;20137;48.834;8.732;2023-09-19T06:27:49;14.70;99.90
33831;DHT22;20137;48.834;8.732;2023-09-19T06:30:18;14.80;99.90
33831;DHT22;20137;48.834;8.732;2023-09-19T06:32:44;14.80;99.90
33831;DHT22;20137;48.834;8.732;2023-09-19T06:35:10;14.70;99.90
33831;DHT22;20137;48.834;8.732;2023-09-19T06:37:37;14.80;99.90
33831;DHT22;20137;48.834;8.732;2023-09-19T06:40:13;14.90;99.90
33831;DHT22;20137;48.834;8.732;2023-09-19T06:42:46;14.90;99.90
33831;DHT22;20137;48.834;8.732;2023-09-19T06:45:13;14.90;99.90
33831;DHT22;20137;48.834;8.732;2023-09-19T06:47:46;15.00;99.90
33831;DHT22;20137;48.834;8.732;2023-09-19T06:50:14;15.00;99.90
33831;DHT22;20137;48.834;8.732;2023-09-19T06:52:41;15.10;99.90
33831;DHT22;20137;48.834;8.732;2023-09-19T06:55:07;15.10;99.90
33831;DHT22;20137;48.834;8.732;2023-09-19T06:57:32;15.10;99.90
33831;DHT22;20137;48.834;8.732;2023-09-19T06:59:58;15.10;99.90
33831;DHT22;20137;48.834;8.732;2023-09-19T07:02:24;15.10;99.90
33831;DHT22;20137;48.834;8.732;2023-09-19T07:04:49;15.10;99.90
33831;DHT22;20137;48.834;8.732;2023-09-19T07:07:15;15.20;99.90
33831;DHT22;20137;48.834;8.732;2023-09-19T07:09:41;15.20;99.90
33831;DHT22;20137;48.834;8.732;2023-09-19T07:12:10;15.30;99.90
33831;DHT22;20137;48.834;8.732;2023-09-19T07:14:37;15.40;99.90
33831;DHT22;20137;48.834;8.732;2023-09-19T07:17:03;15.50;99.90
33831;DHT22;20137;48.834;8.732;2023-09-19T07:19:29;15.60;99.90
33831;DHT22;20137;48.834;8.732;2023-09-19T07:21:55;15.60;99.90
33831;DHT22;20137;48.834;8.732;2023-09-19T07:24:21;15.60;99.90
33831;DHT22;20137;48.834;8.732;2023-09-19T07:26:49;15.70;99.90
33831;DHT22;20137;48.834;8.732;2023-09-19T07:29:15;15.70;99.90
33831;DHT22;20137;48.834;8.732;2023-09-19T07:31:40;15.70;99.90
33831;DHT22;20137;48.834;8.732;2023-09-19T07:34:07;15.80;99.90
33831;DHT22;20137;48.834;8.732;2023-09-19T07:36:34;15.90;99.90
33831;DHT22;20137;48.834;8.732;2023-09-19T07:39:00;16.00;99.90
33831;DHT22;20137;48.834;8.732;2023-09-19T07:41:26;16.20;99.90
33831;DHT22;20137;48.834;8.732;2023-09-19T07:43:52;16.30;99.90
33831;DHT22;20137;48.834;8.732;2023-09-19T07:46:18;16.50;99.90
33831;DHT22;20137;48.834;8.732;2023-09-19T07:48:44;16.40;99.90
33831;DHT22;20137;48.834;8.732;2023-09-19T07:51:14;16.50;99.90
33831;DHT22;20137;48.834;8.732;2023-09-19T07:53:41;16.60;99.90
33831;DHT22;20137;48.834;8.732;2023-09-19T07:56:08;16.70;99.90
33831;DHT22;20137;48.834;8.732;2023-09-19T07:58:34;16.70;99.90
33831;DHT22;20137;48.834;8.732;2023-09-19T08:01:07;16.90;99.90
33831;DHT22;20137;48.834;8.732;2023-09-19T08:03:34;17.00;99.90
33831;DHT22;20137;48.834;8.732;2023-09-19T08:06:00;17.20;99.90
33831;DHT22;20137;48.834;8.732;2023-09-19T08:08:27;17.40;99.90
33831;DHT22;20137;48.834;8.732;2023-09-19T08:10:56;17.60;99.90
33831;DHT22;20137;48.834;8.732;2023-09-19T08:13:25;17.70;99.90
33831;DHT22;20137;48.834;8.732;2023-09-19T08:15:52;17.70;99.90
33831;DHT22;20137;48.834;8.732;2023-09-19T08:18:20;17.80;99.90
33831;DHT22;20137;48.834;8.732;2023-09-19T08:20:50;17.80;99.90
33831;DHT22;20137;48.834;8.732;2023-09-19T08:23:16;17.80;99.90
33831;DHT22;20137;48.834;8.732;2023-09-19T08:25:43;17.70;99.90
33831;DHT22;20137;48.834;8.732;2023-09-19T08:28:09;17.70;99.90
33831;DHT22;20137;48.834;8.732;2023-09-19T08:30:37;17.60;99.90
33831;DHT22;20137;48.834;8.732;2023-09-19T08:33:06;17.50;99.90
33831;DHT22;20137;48.834;8.732;2023-09-19T08:35:33;17.70;99.90
33831;DHT22;20137;48.834;8.732;2023-09-19T08:37:59;17.70;99.90
33831;DHT22;20137;48.834;8.732;2023-09-19T08:40:30;17.50;99.90
33831;DHT22;20137;48.834;8.732;2023-09-19T08:42:59;17.50;99.90
33831;DHT22;20137;48.834;8.732;2023-09-19T08:45:26;17.40;99.90
33831;DHT22;20137;48.834;8.732;2023-09-19T08:50:28;17.80;99.90
33831;DHT22;20137;48.834;8.732;2023-09-19T08:52:55;17.90;99.90
33831;DHT22;20137;48.834;8.732;2023-09-19T08:55:27;17.90;99.90
33831;DHT22;20137;48.834;8.732;2023-09-19T08:58:00;17.90;99.90
33831;DHT22;20137;48.834;8.732;2023-09-19T09:00:28;17.90;99.90
33831;DHT22;20137;48.834;8.732;2023-09-19T09:02:55;17.80;99.90
33831;DHT22;20137;48.834;8.732;2023-09-19T09:05:22;17.80;99.90
33831;DHT22;20137;48.834;8.732;2023-09-19T09:07:49;17.90;99.90
33831;DHT22;20137;48.834;8.732;2023-09-19T09:10:20;18.00;99.90
33831;DHT22;20137;48.834;8.732;2023-09-19T09:12:52;18.00;99.90
33831;DHT22;20137;48.834;8.732;2023-09-19T09:15:22;18.10;99.90
33831;DHT22;20137;48.834;8.732;2023-09-19T09:17:50;18.20;99.90
33831;DHT22;20137;48.834;8.732;2023-09-19T09:20:17;18.40;99.90
33831;DHT22;20137;48.834;8.732;2023-09-19T09:22:51;18.60;99.90
33831;DHT22;20137;48.834;8.732;2023-09-19T09:25:17;18.70;99.90
33831;DHT22;20137;48.834;8.732;2023-09-19T09:27:43;18.80;99.90
33831;DHT22;20137;48.834;8.732;2023-09-19T09:30:34;18.90;99.90
33831;DHT22;20137;48.834;8.732;2023-09-19T09:33:11;19.20;99.90
33831;DHT22;20137;48.834;8.732;2023-09-19T09:35:46;19.30;99.90
33831;DHT22;20137;48.834;8.732;2023-09-19T09:38:12;19.10;99.90
33831;DHT22;20137;48.834;8.732;2023-09-19T09:40:46;18.90;99.90
33831;DHT22;20137;48.834;8.732;2023-09-19T09:43:36;18.90;99.90
33831;DHT22;20137;48.834;8.732;2023-09-19T09:48:48;19.00;99.90
33831;DHT22;20137;48.834;8.732;2023-09-19T09:51:36;18.90;99.90
33831;DHT22;20137;48.834;8.732;2023-09-19T09:54:14;18.80;99.90
33831;DHT22;20137;48.834;8.732;2023-09-19T09:56:59;19.00;99.90
33831;DHT22;20137;48.834;8.732;2023-09-19T10:02:15;18.50;99.90
33831;DHT22;20137;48.834;8.732;2023-09-19T10:04:48;18.40;99.90
33831;DHT22;20137;48.834;8.732;2023-09-19T10:07:32;18.60;99.90
33831;DHT22;20137;48.834;8.732;2023-09-19T10:10:05;18.80;99.90
33831;DHT22;20137;48.834;8.732;2023-09-19T10:12:59;18.90;99.90
33831;DHT22;20137;48.834;8.732;2023-09-19T10:15:32;19.00;99.90
33831;DHT22;20137;48.834;8.732;2023-09-19T10:18:01;19.00;99.90
33831;DHT22;20137;48.834;8.732;2023-09-19T10:20:28;19.20;99.90
33831;DHT22;20137;48.834;8.732;2023-09-19T10:23:03;19.50;99.90
33831;DHT22;20137;48.834;8.732;2023-09-19T10:25:37;19.70;99.90
33831;DHT22;20137;48.834;8.732;2023-09-19T10:28:06;19.60;99.90
33831;DHT22;20137;48.834;8.732;2023-09-19T10:30:46;19.40;99.90
33831;DHT22;20137;48.834;8.732;2023-09-19T10:33:14;19.30;99.90
33831;DHT22;20137;48.834;8.732;2023-09-19T10:35:46;19.10;99.90
33831;DHT22;20137;48.834;8.732;2023-09-19T10:38:13;19.10;99.90
33831;DHT22;20137;48.834;8.732;2023-09-19T10:40:40;19.20;99.90
33831;DHT22;20137;48.834;8.732;2023-09-19T10:43:16;19.10;99.90
33831;DHT22;20137;48.834;8.732;2023-09-19T10:45:48;18.80;99.90
33831;DHT22;20137;48.834;8.732;2023-09-19T10:48:18;18.40;99.90
33831;DHT22;20137;48.834;8.732;2023-09-19T10:51:09;18.30;99.90
33831;DHT22;20137;48.834;8.732;2023-09-19T10:53:51;18.20;99.90
33831;DHT22;20137;48.834;8.732;2023-09-19T10:56:23;18.30;99.90
33831;DHT22;20137;48.834;8.732;2023-09-19T10:59:05;18.30;99.90
33831;DHT22;20137;48.834;8.732;2023-09-19T11:01:49;18.40;99.90
33831;DHT22;20137;48.834;8.732;2023-09-19T11:04:32;18.50;99.90
33831;DHT22;20137;48.834;8.732;2023-09-19T11:07:11;18.60;99.90
33831;DHT22;20137;48.834;8.732;2023-09-19T11:09:44;18.80;99.90
33831;DHT22;20137;48.834;8.732;2023-09-19T11:12:12;19.00;99.90
33831;DHT22;20137;48.834;8.732;2023-09-19T11:14:39;19.00;99.90
33831;DHT22;20137;48.834;8.732;2023-09-19T11:30:45;19.20;99.90
33831;DHT22;20137;48.834;8.732;2023-09-19T11:36:11;19.40;99.90
33831;DHT22;20137;48.834;8.732;2023-09-19T11:38:57;19.40;99.90
33831;DHT22;20137;48.834;8.732;2023-09-19T11:46:21;19.70;99.90
33831;DHT22;20137;48.834;8.732;2023-09-19T11:48:48;19.40;99.90
33831;DHT22;20137;48.834;8.732;2023-09-19T11:51:19;19.50;99.90
33831;DHT22;20137;48.834;8.732;2023-09-19T11:53:48;19.80;99.90
33831;DHT22;20137;48.834;8.732;2023-09-19T11:56:18;20.10;99.90
33831;DHT22;20137;48.834;8.732;2023-09-19T11:58:49;20.00;99.90
33831;DHT22;20137;48.834;8.732;2023-09-19T12:01:22;20.10;99.90
33831;DHT22;20137;48.834;8.732;2023-09-19T12:03:53;20.00;99.90
33831;DHT22;20137;48.834;8.732;2023-09-19T12:06:20;19.60;99.90
33831;DHT22;20137;48.834;8.732;2023-09-19T12:08:47;19.40;99.90
33831;DHT22;20137;48.834;8.732;2023-09-19T12:11:15;19.30;99.90
33831;DHT22;20137;48.834;8.732;2023-09-19T12:13:46;19.30;99.90
33831;DHT22;20137;48.834;8.732;2023-09-19T12:16:15;19.50;99.90
33831;DHT22;20137;48.834;8.732;2023-09-19T12:18:43;19.50;99.90
33831;DHT22;20137;48.834;8.732;2023-09-19T12:21:30;19.50;99.90
33831;DHT22;20137;48.834;8.732;2023-09-19T12:24:12;19.60;99.90
33831;DHT22;20137;48.834;8.732;2023-09-19T12:26:43;19.90;99.90
33831;DHT22;20137;48.834;8.732;2023-09-19T12:29:16;20.00;99.90
33831;DHT22;20137;48.834;8.732;2023-09-19T12:31:53;20.10;99.90
33831;DHT22;20137;48.834;8.732;2023-09-19T12:34:29;20.20;99.90
33831;DHT22;20137;48.834;8.732;2023-09-19T12:39:45;20.20;99.90
33831;DHT22;20137;48.834;8.732;2023-09-19T12:42:26;20.30;99.90
33831;DHT22;20137;48.834;8.732;2023-09-19T12:44:58;20.10;99.90
33831;DHT22;20137;48.834;8.732;2023-09-19T12:47:27;20.20;99.90
33831;DHT22;20137;48.834;8.732;2023-09-19T12:52:52;20.30;99.90
33831;DHT22;20137;48.834;8.732;2023-09-19T12:55:29;20.40;99.90
33831;DHT22;20137;48.834;8.732;2023-09-19T12:58:22;20.30;99.90
33831;DHT22;20137;48.834;8.732;2023-09-19T13:00:46;20.30;99.90
33831;DHT22;20137;48.834;8.732;2023-09-19T13:06:02;19.90;99.90
33831;DHT22;20137;48.834;8.732;2023-09-19T13:08:35;19.80;99.90
33831;DHT22;20137;48.834;8.732;2023-09-19T13:11:07;19.80;99.90
33831;DHT22;20137;48.834;8.732;2023-09-19T13:13:39;19.80;99.90
33831;DHT22;20137;48.834;8.732;2023-09-19T13:16:06;19.80;99.90
33831;DHT22;20137;48.834;8.732;2023-09-19T13:18:47;19.90;99.90
33831;DHT22;20137;48.834;8.732;2023-09-19T13:21:17;20.00;99.90
33831;DHT22;20137;48.834;8.732;2023-09-19T13:23:54;20.30;99.90
33831;DHT22;20137;48.834;8.732;2023-09-19T13:26:25;20.50;99.90
33831;DHT22;20137;48.834;8.732;2023-09-19T13:28:51;20.60;99.90
33831;DHT22;20137;48.834;8.732;2023-09-19T13:31:17;20.80;99.90
33831;DHT22;20137;48.834;8.732;2023-09-19T13:33:44;20.70;99.90
33831;DHT22;20137;48.834;8.732;2023-09-19T13:36:11;20.60;99.90
33831;DHT22;20137;48.834;8.732;2023-09-19T13:38:39;20.70;99.90
33831;DHT22;20137;48.834;8.732;2023-09-19T13:41:05;20.70;99.90
33831;DHT22;20137;48.834;8.732;2023-09-19T13:43:31;20.60;99.90
33831;DHT22;20137;48.834;8.732;2023-09-19T13:45:57;20.70;99.90
33831;DHT22;20137;48.834;8.732;2023-09-19T13:48:23;20.80;99.90
33831;DHT22;20137;48.834;8.732;2023-09-19T13:50:49;20.90;99.90
33831;DHT22;20137;48.834;8.732;2023-09-19T13:53:15;21.00;99.60
33831;DHT22;20137;48.834;8.732;2023-09-19T13:55:42;21.00;99.90
33831;DHT22;20137;48.834;8.732;2023-09-19T13:58:08;21.10;99.90
33831;DHT22;20137;48.834;8.732;2023-09-19T14:00:37;21.20;98.80
33831;DHT22;20137;48.834;8.732;2023-09-19T14:03:04;21.30;99.40
33831;DHT22;20137;48.834;8.732;2023-09-19T14:05:30;21.40;98.60
33831;DHT22;20137;48.834;8.732;2023-09-19T14:07:56;21.50;98.10
33831;DHT22;20137;48.834;8.732;2023-09-19T14:10:22;21.20;98.10
33831;DHT22;20137;48.834;8.732;2023-09-19T14:12:48;21.20;98.50
33831;DHT22;20137;48.834;8.732;2023-09-19T14:15:14;21.00;98.60
33831;DHT22;20137;48.834;8.732;2023-09-19T14:17:40;20.90;98.90
33831;DHT22;20137;48.834;8.732;2023-09-19T14:20:11;21.10;99.20
33831;DHT22;20137;48.834;8.732;2023-09-19T14:22:36;21.20;98.90
33831;DHT22;20137;48.834;8.732;2023-09-19T14:25:03;21.30;98.80
33831;DHT22;20137;48.834;8.732;2023-09-19T14:27:30;21.50;99.30
33831;DHT22;20137;48.834;8.732;2023-09-19T14:29:55;21.50;98.40
33831;DHT22;20137;48.834;8.732;2023-09-19T14:32:23;21.60;98.10
33831;DHT22;20137;48.834;8.732;2023-09-19T14:34:48;21.40;98.40
33831;DHT22;20137;48.834;8.732;2023-09-19T14:37:14;21.20;98.00
33831;DHT22;20137;48.834;8.732;2023-09-19T14:39:42;21.00;98.90
33831;DHT22;20137;48.834;8.732;2023-09-19T14:42:10;21.00;99.30
33831;DHT22;20137;48.834;8.732;2023-09-19T14:44:36;21.10;99.00
33831;DHT22;20137;48.834;8.732;2023-09-19T14:47:03;21.30;99.10
33831;DHT22;20137;48.834;8.732;2023-09-19T14:49:33;21.20;98.50
33831;DHT22;20137;48.834;8.732;2023-09-19T14:51:59;21.20;99.00
33831;DHT22;20137;48.834;8.732;2023-09-19T14:54:25;21.20;98.70
33831;DHT22;20137;48.834;8.732;2023-09-19T14:56:54;21.10;98.90
33831;DHT22;20137;48.834;8.732;2023-09-19T14:59:32;21.20;98.70
33831;DHT22;20137;48.834;8.732;2023-09-19T15:01:59;21.20;99.20
33831;DHT22;20137;48.834;8.732;2023-09-19T15:04:27;21.00;99.30
33831;DHT22;20137;48.834;8.732;2023-09-19T15:06:53;20.80;99.10
33831;DHT22;20137;48.834;8.732;2023-09-19T15:09:23;20.60;99.30
33831;DHT22;20137;48.834;8.732;2023-09-19T15:11:53;20.60;99.90
33831;DHT22;20137;48.834;8.732;2023-09-19T15:14:19;20.60;99.10
33831;DHT22;20137;48.834;8.732;2023-09-19T15:16:45;20.40;99.50
33831;DHT22;20137;48.834;8.732;2023-09-19T15:19:10;20.40;99.90
33831;DHT22;20137;48.834;8.732;2023-09-19T15:21:36;20.40;99.60
33831;DHT22;20137;48.834;8.732;2023-09-19T15:24:03;20.40;99.30
33831;DHT22;20137;48.834;8.732;2023-09-19T15:26:29;20.40;99.30
33831;DHT22;20137;48.834;8.732;2023-09-19T15:28:55;20.30;99.70
33831;DHT22;20137;48.834;8.732;2023-09-19T15:31:22;20.20;99.90
33831;DHT22;20137;48.834;8.732;2023-09-19T15:33:47;20.20;99.90
33831;DHT22;20137;48.834;8.732;2023-09-19T15:36:15;20.30;99.90
33831;DHT22;20137;48.834;8.732;2023-09-19T15:39:06;20.20;99.90
33831;DHT22;20137;48.834;8.732;2023-09-19T15:41:34;20.20;99.90
33831;DHT22;20137;48.834;8.732;2023-09-19T15:44:02;20.20;99.90
33831;DHT22;20137;48.834;8.732;2023-09-19T15:46:29;20.10;99.90
33831;DHT22;20137;48.834;8.732;2023-09-19T15:48:56;20.10;99.90
33831;DHT22;20137;48.834;8.732;2023-09-19T15:51:22;20.10;99.90
33831;DHT22;20137;48.834;8.732;2023-09-19T15:53:49;20.10;99.90
33831;DHT22;20137;48.834;8.732;2023-09-19T15:56:19;20.20;99.90
33831;DHT22;20137;48.834;8.732;2023-09-19T15:58:53;20.30;99.90
33831;DHT22;20137;48.834;8.732;2023-09-19T16:01:19;20.40;99.90
33831;DHT22;20137;48.834;8.732;2023-09-19T16:03:47;20.30;99.90
33831;DHT22;20137;48.834;8.732;2023-09-19T16:06:15;20.10;99.90
33831;DHT22;20137;48.834;8.732;2023-09-19T16:08:44;20.10;99.90
33831;DHT22;20137;48.834;8.732;2023-09-19T16:11:11;20.10;99.90
33831;DHT22;20137;48.834;8.732;2023-09-19T16:13:40;20.10;99.90
33831;DHT22;20137;48.834;8.732;2023-09-19T16:16:17;20.10;99.90
33831;DHT22;20137;48.834;8.732;2023-09-19T16:18:55;20.00;99.90
33831;DHT22;20137;48.834;8.732;2023-09-19T16:21:24;20.00;99.90
33831;DHT22;20137;48.834;8.732;2023-09-19T16:23:51;20.10;99.90
33831;DHT22;20137;48.834;8.732;2023-09-19T16:26:17;20.00;99.90
33831;DHT22;20137;48.834;8.732;2023-09-19T16:28:49;20.00;99.90
33831;DHT22;20137;48.834;8.732;2023-09-19T16:31:15;20.00;99.90
33831;DHT22;20137;48.834;8.732;2023-09-19T16:33:44;19.80;99.90